createdAt,value
2023-03-01T00:01:19.860Z,78.95
2023-03-01T00:06:25.099Z,80.50
2023-03-01T00:11:31.253Z,81.65
2023-03-01T00:16:39.738Z,76.90
2023-03-01T00:21:44.965Z,74.13
2023-03-01T00:26:48.712Z,74.25
2023-03-01T00:31:52.842Z,71.95
2023-03-01T00:37:06.246Z,76.57
2023-03-01T00:42:10.508Z,74.63
2023-03-01T00:47:14.940Z,69.28
2023-03-01T00:52:19.738Z,70.93
2023-03-01T00:57:23.130Z,65.85
2023-03-01T01:02:26.612Z,66.15
2023-03-01T01:07:31.368Z,72.30
2023-03-01T01:12:34.849Z,65.35
2023-03-01T01:17:38.297Z,67.95
2023-03-01T01:22:45.894Z,67.95
2023-03-01T01:27:49.529Z,67.28
2023-03-01T01:32:52.903Z,64.63
2023-03-01T01:37:57.852Z,57.30
2023-03-01T01:43:01.421Z,71.60
2023-03-01T01:48:09.434Z,75.97
2023-03-01T01:53:18.221Z,75.72
2023-03-01T01:58:23.896Z,76.18
2023-03-01T02:03:34.314Z,69.53
2023-03-01T02:08:42.347Z,73.43
2023-03-01T02:13:46.127Z,72.60
2023-03-01T02:18:49.938Z,74.10
2023-03-01T02:23:56.553Z,70.32
2023-03-01T02:29:01.562Z,67.88
2023-03-01T02:34:06.658Z,66.63
2023-03-01T02:39:15.414Z,63.85
2023-03-01T02:44:20.517Z,69.40
2023-03-01T02:49:26.980Z,79.88
2023-03-01T02:54:33.494Z,74.60
2023-03-01T02:59:41.827Z,73.28
2023-03-01T03:04:45.246Z,68.85
2023-03-01T03:09:48.979Z,69.25
2023-03-01T03:14:53.981Z,69.22
2023-03-01T03:19:57.409Z,78.85
2023-03-01T03:25:00.795Z,73.53
2023-03-01T03:30:09.880Z,71.47
2023-03-01T03:35:13.352Z,72.53
2023-03-01T03:40:16.947Z,68.45
2023-03-01T03:45:22.188Z,69.38
2023-03-01T03:50:25.595Z,66.47
2023-03-01T03:55:31.634Z,69.22
2023-03-01T04:00:37.903Z,63.38
2023-03-01T04:05:42.593Z,74.82
2023-03-01T04:10:49.256Z,70.25
2023-03-01T04:15:55.371Z,76.70
2023-03-01T04:20:58.849Z,71.50
2023-03-01T04:26:02.244Z,73.22
2023-03-01T04:31:14.932Z,77.80
2023-03-01T04:36:19.290Z,79.40
2023-03-01T04:41:24.586Z,78.18
2023-03-01T04:46:30.352Z,91.25
2023-03-01T04:51:34.525Z,83.20
2023-03-01T04:56:37.946Z,87.55
2023-03-01T05:01:43.897Z,80.38
2023-03-01T05:06:47.351Z,78.03
2023-03-01T05:11:52.675Z,88.45
2023-03-01T05:17:04.845Z,86.93
2023-03-01T05:22:08.207Z,90.38
2023-03-01T05:27:12.868Z,87.70
2023-03-01T05:32:18.531Z,85.93
2023-03-01T05:37:21.989Z,82.97
2023-03-01T05:42:25.370Z,82.20
2023-03-01T05:47:30.046Z,79.15
2023-03-01T05:52:33.434Z,83.32
2023-03-01T05:57:36.839Z,77.50
2023-03-01T06:02:42.026Z,86.88
2023-03-01T06:07:45.774Z,85.60
2023-03-01T06:12:49.612Z,88.10
2023-03-01T06:17:59.708Z,96.43
2023-03-01T06:23:03.568Z,110.95
2023-03-01T06:28:06.925Z,101.28
2023-03-01T06:33:11.664Z,101.82
2023-03-01T06:38:15.973Z,93.07
2023-03-01T06:43:19.401Z,82.25
2023-03-01T06:48:24.177Z,76.22
2023-03-01T06:53:27.543Z,74.50
2023-03-01T06:58:31.158Z,77.57
2023-03-01T07:03:36.002Z,76.03
2023-03-01T07:08:39.687Z,102.00
2023-03-01T07:13:43.766Z,108.63
2023-03-01T07:18:48.755Z,114.05
2023-03-01T07:23:52.179Z,101.93
2023-03-01T07:28:55.555Z,105.95
2023-03-01T07:34:00.375Z,98.63
2023-03-01T07:39:04.383Z,92.93
2023-03-01T07:44:08.211Z,93.32
2023-03-01T07:49:13.427Z,91.90
2023-03-01T07:54:16.846Z,93.13
2023-03-01T07:59:20.658Z,80.95
2023-03-01T08:04:25.904Z,89.45
2023-03-01T08:09:29.361Z,79.20
2023-03-01T08:14:32.843Z,76.18
2023-03-01T08:19:37.617Z,75.70
2023-03-01T08:24:41.315Z,71.32
2023-03-01T08:29:45.045Z,62.08
2023-03-01T08:34:50.214Z,67.53
2023-03-01T08:39:53.901Z,61.65
2023-03-01T08:44:57.827Z,64.15
2023-03-01T08:50:03.174Z,60.78
2023-03-01T08:55:07.687Z,57.28
2023-03-01T09:00:15.929Z,33.33
2023-03-01T09:05:20.721Z,31.38
2023-03-01T09:10:24.124Z,45.53
2023-03-01T09:15:27.685Z,47.90
2023-03-01T09:20:33.446Z,44.97
2023-03-01T09:25:37.042Z,45.70
2023-03-01T09:30:40.794Z,42.38
2023-03-01T09:35:47.780Z,43.13
2023-03-01T09:40:51.286Z,45.40
2023-03-01T09:45:57.679Z,46.15
2023-03-01T09:51:09.225Z,41.30
2023-03-01T09:56:21.985Z,40.40
2023-03-01T10:01:35.994Z,38.30
2023-03-01T10:06:45.922Z,44.58
2023-03-01T10:11:54.174Z,42.97
2023-03-01T10:17:03.740Z,41.35
2023-03-01T10:22:15.478Z,41.45
2023-03-01T10:27:24.444Z,42.45
2023-03-01T10:32:28.898Z,39.25
2023-03-01T10:37:33.777Z,42.13
2023-03-01T10:42:41.283Z,39.72
2023-03-01T10:47:44.914Z,38.20
2023-03-01T10:53:01.139Z,39.50
2023-03-01T10:58:20.523Z,40.55
2023-03-01T11:03:26.741Z,38.35
2023-03-01T11:08:40.700Z,32.45
2023-03-01T11:13:54.032Z,30.92
2023-03-01T11:24:08.998Z,38.22
2023-03-01T11:29:23.382Z,33.25
2023-03-01T11:34:38.268Z,33.35
2023-03-01T11:39:48.917Z,31.83
2023-03-01T11:44:57.156Z,30.95
2023-03-01T11:50:21.675Z,31.42
2023-03-01T11:55:43.428Z,27.98
2023-03-01T12:01:05.370Z,30.17
2023-03-01T12:06:28.613Z,25.08
2023-03-01T12:11:48.834Z,22.52
2023-03-01T12:17:06.327Z,21.38
2023-03-01T12:22:26.200Z,20.73
2023-03-01T12:27:49.837Z,21.48
2023-03-01T12:33:04.932Z,16.60
2023-03-01T12:38:20.243Z,17.60
2023-03-01T12:43:37.091Z,18.40
2023-03-01T12:48:49.822Z,21.52
2023-03-01T12:53:55.308Z,20.73
2023-03-01T12:59:10.241Z,26.02
2023-03-01T13:04:33.849Z,20.50
2023-03-01T13:09:44.638Z,21.23
2023-03-01T13:14:49.464Z,19.08
2023-03-01T13:19:59.625Z,19.40
2023-03-01T13:25:16.796Z,18.42
2023-03-01T13:30:44.024Z,20.48
2023-03-01T13:35:47.629Z,16.58
2023-03-01T13:41:01.943Z,15.30
2023-03-01T13:46:16.775Z,13.02
2023-03-01T13:51:25.932Z,12.60
2023-03-01T13:56:35.236Z,12.52
2023-03-01T14:01:42.447Z,13.52
2023-03-01T14:06:47.276Z,13.38
2023-03-01T14:12:19.346Z,14.15
2023-03-01T14:17:59.676Z,13.52
2023-03-01T14:23:13.790Z,15.93
2023-03-01T14:33:27.631Z,14.82
2023-03-01T14:38:35.822Z,13.63
2023-03-01T14:43:41.138Z,13.77
2023-03-01T14:48:46.408Z,11.85
2023-03-01T14:53:51.497Z,12.45
2023-03-01T14:58:55.896Z,14.00
2023-03-01T15:04:02.348Z,14.10
2023-03-01T15:09:06.532Z,15.10
2023-03-01T15:14:28.409Z,20.17
2023-03-01T15:19:33.263Z,14.13
2023-03-01T15:24:37.445Z,19.30
2023-03-01T15:29:41.721Z,16.92
2023-03-01T15:34:46.804Z,16.00
2023-03-01T15:39:56.347Z,19.73
2023-03-01T15:45:11.119Z,21.45
2023-03-01T15:50:21.060Z,15.55
2023-03-01T15:55:27.037Z,17.77
2023-03-01T16:00:31.032Z,18.85
2023-03-01T16:05:37.995Z,15.68
2023-03-01T16:10:42.092Z,18.65
2023-03-01T16:15:45.547Z,22.05
2023-03-01T16:20:50.780Z,23.77
2023-03-01T16:25:54.399Z,28.75
2023-03-01T16:30:58.107Z,29.23
2023-03-01T16:36:03.498Z,29.90
2023-03-01T16:41:07.093Z,26.92
2023-03-01T16:46:14.020Z,26.95
2023-03-01T16:51:19.266Z,21.88
2023-03-01T16:56:22.719Z,23.25
2023-03-01T17:01:26.934Z,27.67
2023-03-01T17:06:33.603Z,23.08
2023-03-01T17:11:37.862Z,26.20
2023-03-01T17:16:42.168Z,28.67
2023-03-01T17:21:47.174Z,22.27
2023-03-01T17:26:50.665Z,23.10
2023-03-01T17:31:55.894Z,28.13
2023-03-01T17:37:01.030Z,24.70
2023-03-01T17:42:06.703Z,28.02
2023-03-01T17:47:11.873Z,36.15
2023-03-01T17:52:16.715Z,39.25
2023-03-01T17:57:20.146Z,31.75
2023-03-01T18:02:23.777Z,43.47
2023-03-01T18:07:29.688Z,49.38
2023-03-01T18:12:33.582Z,59.28
2023-03-01T18:17:36.988Z,47.88
2023-03-01T18:22:41.974Z,55.33
2023-03-01T18:27:45.924Z,66.57
2023-03-01T18:32:56.132Z,55.55
2023-03-01T18:38:00.908Z,51.30
2023-03-01T18:43:04.372Z,46.70
2023-03-01T18:48:08.046Z,52.28
2023-03-01T18:53:12.815Z,58.25
2023-03-01T18:58:16.291Z,53.17
2023-03-01T19:03:19.718Z,50.13
2023-03-01T19:08:24.714Z,58.35
2023-03-01T19:13:29.022Z,53.88
2023-03-01T19:18:32.443Z,55.92
2023-03-01T19:23:38.568Z,45.97
2023-03-01T19:28:42.563Z,55.40
2023-03-01T19:33:46.520Z,50.60
2023-03-01T19:38:51.751Z,55.05
2023-03-01T19:43:55.428Z,52.42
2023-03-01T19:49:00.472Z,53.42
2023-03-01T19:54:06.497Z,64.15
2023-03-01T19:59:09.927Z,55.33
2023-03-01T20:04:13.935Z,59.90
2023-03-01T20:09:22.235Z,57.10
2023-03-01T20:14:25.971Z,62.15
2023-03-01T20:19:29.765Z,68.30
2023-03-01T20:24:34.547Z,66.15
2023-03-01T20:29:37.975Z,68.57
2023-03-01T20:34:41.700Z,68.28
2023-03-01T20:39:46.663Z,69.50
2023-03-01T20:44:50.629Z,65.55
2023-03-01T20:49:54.048Z,80.00
2023-03-01T20:54:59.658Z,71.50
2023-03-01T21:00:03.707Z,73.00
2023-03-01T21:05:07.834Z,76.05
2023-03-01T21:10:14.202Z,75.15
2023-03-01T21:15:28.584Z,74.95
2023-03-01T21:20:32.900Z,79.43
2023-03-01T21:25:38.498Z,75.18
2023-03-01T21:30:41.874Z,77.95
2023-03-01T21:35:45.331Z,105.95
2023-03-01T21:40:50.084Z,89.88
2023-03-01T21:45:53.567Z,84.63
2023-03-01T21:50:57.146Z,86.88
2023-03-01T21:56:02.305Z,78.68
2023-03-01T22:01:11.014Z,86.10
2023-03-01T22:06:30.574Z,95.28
2023-03-01T22:11:39.446Z,130.48
2023-03-01T22:16:45.541Z,153.25
2023-03-01T22:21:50.933Z,243.52
2023-03-01T22:26:56.148Z,269.23
2023-03-01T22:32:00.111Z,229.27
2023-03-01T22:37:03.862Z,170.65
2023-03-01T22:42:09.786Z,131.38
2023-03-01T22:47:13.357Z,121.85
2023-03-01T22:52:16.816Z,160.25
2023-03-01T22:57:21.835Z,137.10
2023-03-01T23:02:25.489Z,141.60
2023-03-01T23:07:28.978Z,127.97
2023-03-01T23:12:34.492Z,114.28
2023-03-01T23:17:38.197Z,115.15
2023-03-01T23:22:41.933Z,117.97
2023-03-01T23:27:46.723Z,119.47
2023-03-01T23:32:50.517Z,108.35
2023-03-01T23:37:53.940Z,104.07
2023-03-01T23:42:58.682Z,117.13
2023-03-01T23:48:02.099Z,93.50
2023-03-01T23:53:05.520Z,103.00
2023-03-01T23:58:10.401Z,100.10
